Terminal Aerodrome Forecast
Issued by NWS

Home | Current Version | Previous Version | Text Only | Print | Product List | Glossary On
Versions: 1 2 3 4 5 6 7 8 9 10 11 12 13
000
FTUS46 KOTX 042320
TAFSFF
TAF
KSFF 042320Z 0500/0524 27005KT P6SM VCSH SCT080 BKN120
     FM050130 27005KT P6SM -SHRA BKN070 BKN100
     FM050300 02004KT P6SM SCT070 BKN100
     FM050800 19004KT P6SM TSRA BKN080CB BKN120
     FM051100 18004KT P6SM VCSH BKN080 BKN120 OVC200=

USA.gov is the U.S. government's official web portal to all federal, state and local government web resources and services.